sensor_id;sensor_type;location;lat;lon;timestamp;P1;durP1;ratioP1;P2;durP2;ratioP2
20458;SDS011;10388;52.314;7.938;2023-05-16T01:28:53;4.27;;;1.90;;
20458;SDS011;10388;52.314;7.938;2023-05-16T01:31:40;3.30;;;1.73;;
20458;SDS011;10388;52.314;7.938;2023-05-16T01:34:11;4.73;;;1.97;;
20458;SDS011;10388;52.314;7.938;2023-05-16T01:36:43;4.07;;;1.67;;
20458;SDS011;10388;52.314;7.938;2023-05-16T01:39:32;5.30;;;1.80;;
20458;SDS011;10388;52.314;7.938;2023-05-16T01:42:13;3.30;;;1.70;;
20458;SDS011;10388;52.314;7.938;2023-05-16T01:44:45;6.33;;;2.20;;
20458;SDS011;10388;52.314;7.938;2023-05-16T01:47:22;6.60;;;2.23;;
20458;SDS011;10388;52.314;7.938;2023-05-16T01:50:13;4.80;;;1.90;;
20458;SDS011;10388;52.314;7.938;2023-05-16T01:52:57;8.47;;;2.60;;
20458;SDS011;10388;52.314;7.938;2023-05-16T01:55:38;6.10;;;1.97;;
20458;SDS011;10388;52.314;7.938;2023-05-16T01:58:16;4.03;;;1.80;;
20458;SDS011;10388;52.314;7.938;2023-05-16T02:00:53;6.37;;;1.93;;
20458;SDS011;10388;52.314;7.938;2023-05-16T02:03:33;5.23;;;2.03;;
20458;SDS011;10388;52.314;7.938;2023-05-16T02:06:04;3.37;;;1.43;;
20458;SDS011;10388;52.314;7.938;2023-05-16T02:08:34;4.37;;;1.50;;
20458;SDS011;10388;52.314;7.938;2023-05-16T02:11:05;2.30;;;1.53;;
20458;SDS011;10388;52.314;7.938;2023-05-16T02:13:36;3.70;;;1.97;;
20458;SDS011;10388;52.314;7.938;2023-05-16T02:16:10;5.47;;;2.50;;
20458;SDS011;10388;52.314;7.938;2023-05-16T02:18:40;8.60;;;2.33;;
20458;SDS011;10388;52.314;7.938;2023-05-16T02:21:11;5.33;;;2.47;;
20458;SDS011;10388;52.314;7.938;2023-05-16T02:23:42;3.33;;;1.93;;
20458;SDS011;10388;52.314;7.938;2023-05-16T02:26:13;5.37;;;2.50;;
20458;SDS011;10388;52.314;7.938;2023-05-16T02:28:43;8.37;;;2.40;;
20458;SDS011;10388;52.314;7.938;2023-05-16T02:31:24;6.73;;;2.60;;
20458;SDS011;10388;52.314;7.938;2023-05-16T02:34:01;5.43;;;2.33;;
20458;SDS011;10388;52.314;7.938;2023-05-16T02:36:32;7.70;;;2.33;;
20458;SDS011;10388;52.314;7.938;2023-05-16T02:39:06;5.17;;;1.97;;
20458;SDS011;10388;52.314;7.938;2023-05-16T02:41:38;7.13;;;2.47;;
20458;SDS011;10388;52.314;7.938;2023-05-16T02:44:09;4.67;;;2.50;;
20458;SDS011;10388;52.314;7.938;2023-05-16T02:46:40;7.60;;;2.40;;
20458;SDS011;10388;52.314;7.938;2023-05-16T02:49:10;7.90;;;2.23;;
20458;SDS011;10388;52.314;7.938;2023-05-16T02:51:41;7.17;;;2.30;;
20458;SDS011;10388;52.314;7.938;2023-05-16T02:54:12;5.70;;;1.70;;
20458;SDS011;10388;52.314;7.938;2023-05-16T02:56:45;7.07;;;1.90;;
20458;SDS011;10388;52.314;7.938;2023-05-16T02:59:16;4.30;;;1.97;;
20458;SDS011;10388;52.314;7.938;2023-05-16T03:01:46;9.97;;;2.20;;
20458;SDS011;10388;52.314;7.938;2023-05-16T03:04:17;10.00;;;2.40;;
20458;SDS011;10388;52.314;7.938;2023-05-16T03:06:48;5.70;;;2.00;;
20458;SDS011;10388;52.314;7.938;2023-05-16T03:09:20;7.40;;;2.63;;
20458;SDS011;10388;52.314;7.938;2023-05-16T03:11:50;4.73;;;2.30;;
20458;SDS011;10388;52.314;7.938;2023-05-16T03:14:23;6.07;;;2.73;;
20458;SDS011;10388;52.314;7.938;2023-05-16T03:16:54;7.87;;;2.50;;
20458;SDS011;10388;52.314;7.938;2023-05-16T03:19:25;8.53;;;3.30;;
20458;SDS011;10388;52.314;7.938;2023-05-16T03:21:56;7.80;;;2.37;;
20458;SDS011;10388;52.314;7.938;2023-05-16T03:24:26;8.60;;;2.50;;
20458;SDS011;10388;52.314;7.938;2023-05-16T03:26:57;8.50;;;2.53;;
20458;SDS011;10388;52.314;7.938;2023-05-16T03:29:29;7.67;;;2.50;;
20458;SDS011;10388;52.314;7.938;2023-05-16T03:32:00;10.10;;;2.47;;
20458;SDS011;10388;52.314;7.938;2023-05-16T03:34:31;12.80;;;2.37;;
20458;SDS011;10388;52.314;7.938;2023-05-16T03:37:04;8.97;;;2.27;;
20458;SDS011;10388;52.314;7.938;2023-05-16T03:39:37;6.47;;;2.20;;
20458;SDS011;10388;52.314;7.938;2023-05-16T03:42:07;4.67;;;2.10;;
20458;SDS011;10388;52.314;7.938;2023-05-16T03:44:38;10.23;;;3.00;;
20458;SDS011;10388;52.314;7.938;2023-05-16T03:47:08;6.47;;;2.97;;
20458;SDS011;10388;52.314;7.938;2023-05-16T03:49:39;10.67;;;2.83;;
20458;SDS011;10388;52.314;7.938;2023-05-16T03:52:10;6.43;;;2.20;;
20458;SDS011;10388;52.314;7.938;2023-05-16T03:54:40;7.93;;;2.33;;
20458;SDS011;10388;52.314;7.938;2023-05-16T03:57:11;9.37;;;2.67;;
20458;SDS011;10388;52.314;7.938;2023-05-16T03:59:41;9.00;;;2.70;;
20458;SDS011;10388;52.314;7.938;2023-05-16T04:02:12;7.20;;;2.43;;
20458;SDS011;10388;52.314;7.938;2023-05-16T04:04:42;12.10;;;2.07;;
20458;SDS011;10388;52.314;7.938;2023-05-16T04:07:13;10.93;;;2.50;;
20458;SDS011;10388;52.314;7.938;2023-05-16T04:09:44;9.80;;;2.73;;
20458;SDS011;10388;52.314;7.938;2023-05-16T04:12:14;9.50;;;2.13;;
20458;SDS011;10388;52.314;7.938;2023-05-16T04:14:45;6.80;;;2.23;;
20458;SDS011;10388;52.314;7.938;2023-05-16T04:17:16;9.53;;;2.60;;
20458;SDS011;10388;52.314;7.938;2023-05-16T04:19:46;6.80;;;2.20;;
20458;SDS011;10388;52.314;7.938;2023-05-16T04:22:17;6.20;;;2.20;;
20458;SDS011;10388;52.314;7.938;2023-05-16T04:24:49;6.57;;;2.23;;
20458;SDS011;10388;52.314;7.938;2023-05-16T04:27:20;8.07;;;2.37;;
20458;SDS011;10388;52.314;7.938;2023-05-16T04:29:51;8.23;;;2.60;;
20458;SDS011;10388;52.314;7.938;2023-05-16T04:32:21;13.03;;;2.70;;
20458;SDS011;10388;52.314;7.938;2023-05-16T04:34:52;10.27;;;2.60;;
20458;SDS011;10388;52.314;7.938;2023-05-16T04:37:23;10.03;;;3.03;;
20458;SDS011;10388;52.314;7.938;2023-05-16T04:39:54;15.90;;;3.23;;
20458;SDS011;10388;52.314;7.938;2023-05-16T04:42:24;9.23;;;2.13;;
20458;SDS011;10388;52.314;7.938;2023-05-16T04:44:55;10.20;;;2.70;;
20458;SDS011;10388;52.314;7.938;2023-05-16T04:47:26;7.90;;;2.23;;
20458;SDS011;10388;52.314;7.938;2023-05-16T04:49:56;7.53;;;2.70;;
20458;SDS011;10388;52.314;7.938;2023-05-16T04:52:27;10.23;;;3.17;;
20458;SDS011;10388;52.314;7.938;2023-05-16T04:54:57;7.83;;;2.93;;
20458;SDS011;10388;52.314;7.938;2023-05-16T04:57:29;15.87;;;3.03;;
20458;SDS011;10388;52.314;7.938;2023-05-16T04:59:59;7.80;;;2.97;;
20458;SDS011;10388;52.314;7.938;2023-05-16T05:02:30;7.73;;;3.10;;
20458;SDS011;10388;52.314;7.938;2023-05-16T05:05:01;7.83;;;3.03;;
20458;SDS011;10388;52.314;7.938;2023-05-16T05:07:32;7.73;;;2.83;;
20458;SDS011;10388;52.314;7.938;2023-05-16T05:10:02;14.40;;;3.20;;
20458;SDS011;10388;52.314;7.938;2023-05-16T05:12:34;9.63;;;2.73;;
20458;SDS011;10388;52.314;7.938;2023-05-16T05:15:05;7.83;;;2.87;;
20458;SDS011;10388;52.314;7.938;2023-05-16T05:17:36;9.60;;;2.70;;
20458;SDS011;10388;52.314;7.938;2023-05-16T05:20:06;8.83;;;2.80;;
20458;SDS011;10388;52.314;7.938;2023-05-16T05:22:37;8.70;;;2.50;;
20458;SDS011;10388;52.314;7.938;2023-05-16T05:25:08;10.93;;;2.40;;
20458;SDS011;10388;52.314;7.938;2023-05-16T05:27:38;6.87;;;2.47;;
20458;SDS011;10388;52.314;7.938;2023-05-16T05:30:09;6.50;;;1.97;;
20458;SDS011;10388;52.314;7.938;2023-05-16T05:32:40;9.23;;;2.87;;
20458;SDS011;10388;52.314;7.938;2023-05-16T05:35:11;9.87;;;2.60;;
20458;SDS011;10388;52.314;7.938;2023-05-16T05:37:42;5.43;;;1.90;;
20458;SDS011;10388;52.314;7.938;2023-05-16T05:40:12;5.07;;;1.77;;
20458;SDS011;10388;52.314;7.938;2023-05-16T05:42:43;10.60;;;1.87;;
20458;SDS011;10388;52.314;7.938;2023-05-16T05:45:14;8.57;;;2.37;;
20458;SDS011;10388;52.314;7.938;2023-05-16T05:47:45;8.63;;;2.03;;
20458;SDS011;10388;52.314;7.938;2023-05-16T05:50:15;7.80;;;2.33;;
20458;SDS011;10388;52.314;7.938;2023-05-16T05:52:46;6.70;;;2.13;;
20458;SDS011;10388;52.314;7.938;2023-05-16T05:55:16;7.13;;;2.00;;
20458;SDS011;10388;52.314;7.938;2023-05-16T05:57:47;9.57;;;2.20;;
20458;SDS011;10388;52.314;7.938;2023-05-16T06:00:18;6.80;;;1.90;;
20458;SDS011;10388;52.314;7.938;2023-05-16T06:02:48;6.17;;;1.90;;
20458;SDS011;10388;52.314;7.938;2023-05-16T06:05:19;9.27;;;2.13;;
20458;SDS011;10388;52.314;7.938;2023-05-16T06:07:50;7.37;;;2.10;;
20458;SDS011;10388;52.314;7.938;2023-05-16T06:10:20;9.57;;;2.33;;
20458;SDS011;10388;52.314;7.938;2023-05-16T06:12:51;13.27;;;2.67;;
20458;SDS011;10388;52.314;7.938;2023-05-16T06:15:21;7.40;;;1.93;;
20458;SDS011;10388;52.314;7.938;2023-05-16T06:17:52;7.77;;;2.20;;
20458;SDS011;10388;52.314;7.938;2023-05-16T06:20:22;5.23;;;1.73;;
20458;SDS011;10388;52.314;7.938;2023-05-16T06:22:53;6.93;;;1.90;;
20458;SDS011;10388;52.314;7.938;2023-05-16T06:25:23;8.13;;;2.00;;
20458;SDS011;10388;52.314;7.938;2023-05-16T06:27:54;6.30;;;1.70;;
20458;SDS011;10388;52.314;7.938;2023-05-16T06:30:25;6.17;;;1.97;;
20458;SDS011;10388;52.314;7.938;2023-05-16T06:32:55;5.83;;;2.20;;
20458;SDS011;10388;52.314;7.938;2023-05-16T06:35:26;5.93;;;1.70;;
20458;SDS011;10388;52.314;7.938;2023-05-16T06:37:56;7.63;;;2.10;;
20458;SDS011;10388;52.314;7.938;2023-05-16T06:40:27;5.13;;;2.10;;
20458;SDS011;10388;52.314;7.938;2023-05-16T06:42:57;8.13;;;1.90;;
20458;SDS011;10388;52.314;7.938;2023-05-16T06:45:28;7.43;;;1.70;;
20458;SDS011;10388;52.314;7.938;2023-05-16T06:47:58;4.63;;;1.80;;
20458;SDS011;10388;52.314;7.938;2023-05-16T06:50:29;6.83;;;1.90;;
20458;SDS011;10388;52.314;7.938;2023-05-16T06:53:00;5.27;;;1.80;;
20458;SDS011;10388;52.314;7.938;2023-05-16T06:55:30;9.47;;;1.67;;
20458;SDS011;10388;52.314;7.938;2023-05-16T06:58:01;6.37;;;1.90;;
20458;SDS011;10388;52.314;7.938;2023-05-16T07:00:31;5.67;;;1.93;;
20458;SDS011;10388;52.314;7.938;2023-05-16T07:03:02;7.37;;;2.03;;
20458;SDS011;10388;52.314;7.938;2023-05-16T07:05:33;7.30;;;1.80;;
20458;SDS011;10388;52.314;7.938;2023-05-16T07:08:04;9.67;;;2.03;;
20458;SDS011;10388;52.314;7.938;2023-05-16T07:10:34;11.80;;;1.80;;
20458;SDS011;10388;52.314;7.938;2023-05-16T07:13:05;4.00;;;1.63;;
20458;SDS011;10388;52.314;7.938;2023-05-16T07:15:36;6.23;;;1.93;;
20458;SDS011;10388;52.314;7.938;2023-05-16T07:18:07;5.83;;;1.90;;
20458;SDS011;10388;52.314;7.938;2023-05-16T07:20:37;4.47;;;1.30;;
20458;SDS011;10388;52.314;7.938;2023-05-16T07:23:08;4.13;;;1.27;;
20458;SDS011;10388;52.314;7.938;2023-05-16T07:25:38;6.37;;;1.47;;
20458;SDS011;10388;52.314;7.938;2023-05-16T07:28:09;5.03;;;1.50;;
20458;SDS011;10388;52.314;7.938;2023-05-16T07:30:40;4.63;;;1.40;;
20458;SDS011;10388;52.314;7.938;2023-05-16T07:33:10;9.10;;;2.37;;
20458;SDS011;10388;52.314;7.938;2023-05-16T07:35:41;9.07;;;1.90;;
20458;SDS011;10388;52.314;7.938;2023-05-16T07:38:11;8.23;;;1.93;;
20458;SDS011;10388;52.314;7.938;2023-05-16T07:40:42;5.23;;;1.37;;
20458;SDS011;10388;52.314;7.938;2023-05-16T07:43:13;7.43;;;1.83;;
20458;SDS011;10388;52.314;7.938;2023-05-16T07:45:43;7.00;;;1.40;;
20458;SDS011;10388;52.314;7.938;2023-05-16T07:48:14;6.17;;;1.43;;
20458;SDS011;10388;52.314;7.938;2023-05-16T07:50:44;6.57;;;1.63;;
20458;SDS011;10388;52.314;7.938;2023-05-16T07:53:15;4.07;;;1.67;;
20458;SDS011;10388;52.314;7.938;2023-05-16T07:55:45;4.63;;;1.67;;
20458;SDS011;10388;52.314;7.938;2023-05-16T07:58:16;4.30;;;1.50;;
20458;SDS011;10388;52.314;7.938;2023-05-16T08:00:47;6.63;;;1.40;;
20458;SDS011;10388;52.314;7.938;2023-05-16T08:03:18;2.93;;;1.10;;
20458;SDS011;10388;52.314;7.938;2023-05-16T08:05:48;3.87;;;1.63;;
20458;SDS011;10388;52.314;7.938;2023-05-16T08:08:20;2.73;;;1.30;;
20458;SDS011;10388;52.314;7.938;2023-05-16T08:10:51;4.40;;;1.37;;
20458;SDS011;10388;52.314;7.938;2023-05-16T08:13:21;3.50;;;0.93;;
20458;SDS011;10388;52.314;7.938;2023-05-16T08:15:52;5.43;;;1.30;;
20458;SDS011;10388;52.314;7.938;2023-05-16T08:18:22;6.47;;;1.30;;
20458;SDS011;10388;52.314;7.938;2023-05-16T08:20:53;5.13;;;1.47;;
20458;SDS011;10388;52.314;7.938;2023-05-16T08:23:23;5.47;;;1.53;;
20458;SDS011;10388;52.314;7.938;2023-05-16T08:25:54;6.50;;;1.50;;
20458;SDS011;10388;52.314;7.938;2023-05-16T08:28:24;5.30;;;1.40;;
20458;SDS011;10388;52.314;7.938;2023-05-16T08:30:55;4.13;;;1.30;;
20458;SDS011;10388;52.314;7.938;2023-05-16T08:33:25;2.50;;;1.20;;
20458;SDS011;10388;52.314;7.938;2023-05-16T08:36:11;3.53;;;1.07;;
20458;SDS011;10388;52.314;7.938;2023-05-16T08:38:42;3.67;;;1.00;;
20458;SDS011;10388;52.314;7.938;2023-05-16T08:41:12;3.10;;;1.03;;
20458;SDS011;10388;52.314;7.938;2023-05-16T08:43:43;8.77;;;2.00;;
20458;SDS011;10388;52.314;7.938;2023-05-16T08:46:13;6.43;;;1.90;;
20458;SDS011;10388;52.314;7.938;2023-05-16T08:48:48;6.50;;;1.30;;
20458;SDS011;10388;52.314;7.938;2023-05-16T08:51:22;7.00;;;1.40;;
20458;SDS011;10388;52.314;7.938;2023-05-16T08:53:59;3.37;;;1.17;;
20458;SDS011;10388;52.314;7.938;2023-05-16T08:56:33;4.50;;;1.07;;
20458;SDS011;10388;52.314;7.938;2023-05-16T08:59:05;4.80;;;1.20;;
20458;SDS011;10388;52.314;7.938;2023-05-16T09:01:36;2.93;;;1.20;;
20458;SDS011;10388;52.314;7.938;2023-05-16T09:04:07;3.57;;;1.23;;
20458;SDS011;10388;52.314;7.938;2023-05-16T09:06:38;6.30;;;0.90;;
20458;SDS011;10388;52.314;7.938;2023-05-16T09:09:09;3.33;;;1.07;;
20458;SDS011;10388;52.314;7.938;2023-05-16T09:11:41;3.70;;;1.10;;
20458;SDS011;10388;52.314;7.938;2023-05-16T09:14:12;4.93;;;1.40;;
20458;SDS011;10388;52.314;7.938;2023-05-16T09:16:44;4.13;;;1.20;;
20458;SDS011;10388;52.314;7.938;2023-05-16T09:19:35;5.40;;;1.33;;
20458;SDS011;10388;52.314;7.938;2023-05-16T09:22:13;8.50;;;1.93;;
20458;SDS011;10388;52.314;7.938;2023-05-16T09:24:44;5.10;;;1.50;;
20458;SDS011;10388;52.314;7.938;2023-05-16T09:27:15;2.60;;;1.07;;
20458;SDS011;10388;52.314;7.938;2023-05-16T09:29:49;3.13;;;1.13;;
20458;SDS011;10388;52.314;7.938;2023-05-16T09:32:21;6.07;;;1.13;;
20458;SDS011;10388;52.314;7.938;2023-05-16T09:34:53;4.10;;;1.17;;
20458;SDS011;10388;52.314;7.938;2023-05-16T09:37:26;6.33;;;1.40;;
20458;SDS011;10388;52.314;7.938;2023-05-16T09:39:57;3.33;;;1.17;;
20458;SDS011;10388;52.314;7.938;2023-05-16T09:42:27;4.30;;;1.20;;
20458;SDS011;10388;52.314;7.938;2023-05-16T09:45:00;2.43;;;1.10;;
20458;SDS011;10388;52.314;7.938;2023-05-16T09:47:30;1.67;;;0.97;;
20458;SDS011;10388;52.314;7.938;2023-05-16T09:50:01;2.60;;;0.90;;
20458;SDS011;10388;52.314;7.938;2023-05-16T09:52:32;1.70;;;0.80;;
20458;SDS011;10388;52.314;7.938;2023-05-16T09:55:05;4.53;;;1.63;;
20458;SDS011;10388;52.314;7.938;2023-05-16T09:57:37;2.87;;;1.20;;
20458;SDS011;10388;52.314;7.938;2023-05-16T10:00:11;5.90;;;1.20;;
20458;SDS011;10388;52.314;7.938;2023-05-16T10:02:42;4.43;;;0.97;;
20458;SDS011;10388;52.314;7.938;2023-05-16T10:05:13;3.13;;;0.90;;
20458;SDS011;10388;52.314;7.938;2023-05-16T10:07:46;1.83;;;0.90;;
20458;SDS011;10388;52.314;7.938;2023-05-16T10:10:18;4.33;;;0.97;;
20458;SDS011;10388;52.314;7.938;2023-05-16T10:12:49;4.87;;;1.43;;
20458;SDS011;10388;52.314;7.938;2023-05-16T10:15:21;4.63;;;1.30;;
20458;SDS011;10388;52.314;7.938;2023-05-16T10:17:52;2.10;;;1.00;;
20458;SDS011;10388;52.314;7.938;2023-05-16T10:20:25;3.30;;;1.10;;
20458;SDS011;10388;52.314;7.938;2023-05-16T10:22:56;4.17;;;1.30;;
20458;SDS011;10388;52.314;7.938;2023-05-16T10:25:31;3.13;;;1.10;;
20458;SDS011;10388;52.314;7.938;2023-05-16T10:28:10;2.90;;;1.13;;
20458;SDS011;10388;52.314;7.938;2023-05-16T10:30:41;2.50;;;0.87;;
20458;SDS011;10388;52.314;7.938;2023-05-16T10:33:15;4.23;;;1.13;;
20458;SDS011;10388;52.314;7.938;2023-05-16T10:35:47;1.97;;;1.03;;
20458;SDS011;10388;52.314;7.938;2023-05-16T10:38:17;3.60;;;1.20;;
20458;SDS011;10388;52.314;7.938;2023-05-16T10:40:50;3.57;;;0.90;;
20458;SDS011;10388;52.314;7.938;2023-05-16T10:43:24;3.27;;;1.20;;
20458;SDS011;10388;52.314;7.938;2023-05-16T10:45:58;4.13;;;1.17;;
20458;SDS011;10388;52.314;7.938;2023-05-16T10:48:32;2.47;;;0.97;;
20458;SDS011;10388;52.314;7.938;2023-05-16T10:53:53;3.77;;;1.00;;
20458;SDS011;10388;52.314;7.938;2023-05-16T10:56:25;5.23;;;1.57;;
20458;SDS011;10388;52.314;7.938;2023-05-16T10:58:56;5.90;;;1.20;;
20458;SDS011;10388;52.314;7.938;2023-05-16T11:01:27;5.30;;;0.90;;
20458;SDS011;10388;52.314;7.938;2023-05-16T11:04:05;3.13;;;0.90;;
20458;SDS011;10388;52.314;7.938;2023-05-16T11:17:15;2.60;;;0.90;;
20458;SDS011;10388;52.314;7.938;2023-05-16T11:19:58;2.50;;;0.87;;
20458;SDS011;10388;52.314;7.938;2023-05-16T11:22:32;3.10;;;1.10;;
20458;SDS011;10388;52.314;7.938;2023-05-16T11:25:09;2.43;;;0.90;;
20458;SDS011;10388;52.314;7.938;2023-05-16T11:27:43;3.77;;;1.30;;
20458;SDS011;10388;52.314;7.938;2023-05-16T11:30:16;3.30;;;1.10;;
20458;SDS011;10388;52.314;7.938;2023-05-16T11:32:48;1.33;;;0.90;;
20458;SDS011;10388;52.314;7.938;2023-05-16T11:35:19;2.93;;;0.90;;
20458;SDS011;10388;52.314;7.938;2023-05-16T11:37:50;3.77;;;1.20;;
20458;SDS011;10388;52.314;7.938;2023-05-16T11:40:21;2.67;;;1.20;;
20458;SDS011;10388;52.314;7.938;2023-05-16T11:42:51;3.73;;;1.20;;
20458;SDS011;10388;52.314;7.938;2023-05-16T11:45:22;6.23;;;1.30;;
20458;SDS011;10388;52.314;7.938;2023-05-16T11:48:00;3.10;;;1.30;;
20458;SDS011;10388;52.314;7.938;2023-05-16T11:50:33;3.67;;;1.00;;
20458;SDS011;10388;52.314;7.938;2023-05-16T11:53:04;4.90;;;1.20;;
20458;SDS011;10388;52.314;7.938;2023-05-16T11:55:35;3.43;;;0.80;;
20458;SDS011;10388;52.314;7.938;2023-05-16T11:58:05;4.87;;;1.00;;
20458;SDS011;10388;52.314;7.938;2023-05-16T12:00:36;3.20;;;1.20;;
20458;SDS011;10388;52.314;7.938;2023-05-16T12:03:17;5.03;;;1.40;;
20458;SDS011;10388;52.314;7.938;2023-05-16T12:05:50;1.40;;;0.80;;
20458;SDS011;10388;52.314;7.938;2023-05-16T12:08:24;6.20;;;1.00;;
20458;SDS011;10388;52.314;7.938;2023-05-16T12:10:54;1.60;;;0.80;;
20458;SDS011;10388;52.314;7.938;2023-05-16T12:13:25;1.17;;;0.77;;
20458;SDS011;10388;52.314;7.938;2023-05-16T12:15:56;3.03;;;0.90;;
20458;SDS011;10388;52.314;7.938;2023-05-16T12:18:27;2.90;;;0.90;;
20458;SDS011;10388;52.314;7.938;2023-05-16T12:20:58;1.47;;;0.80;;
20458;SDS011;10388;52.314;7.938;2023-05-16T12:23:28;2.70;;;1.10;;
20458;SDS011;10388;52.314;7.938;2023-05-16T12:26:01;1.63;;;0.87;;
20458;SDS011;10388;52.314;7.938;2023-05-16T12:28:35;2.53;;;1.07;;
20458;SDS011;10388;52.314;7.938;2023-05-16T12:31:17;3.93;;;1.07;;
20458;SDS011;10388;52.314;7.938;2023-05-16T12:33:54;1.87;;;0.93;;
20458;SDS011;10388;52.314;7.938;2023-05-16T12:36:25;2.87;;;0.90;;
20458;SDS011;10388;52.314;7.938;2023-05-16T12:39:01;3.13;;;1.03;;
20458;SDS011;10388;52.314;7.938;2023-05-16T12:41:32;2.73;;;1.10;;
20458;SDS011;10388;52.314;7.938;2023-05-16T12:44:11;4.00;;;0.97;;
20458;SDS011;10388;52.314;7.938;2023-05-16T12:46:46;2.93;;;0.90;;
20458;SDS011;10388;52.314;7.938;2023-05-16T12:49:20;5.17;;;1.10;;
20458;SDS011;10388;52.314;7.938;2023-05-16T12:51:52;4.07;;;0.90;;
20458;SDS011;10388;52.314;7.938;2023-05-16T12:54:24;3.63;;;1.63;;
20458;SDS011;10388;52.314;7.938;2023-05-16T12:56:54;3.80;;;1.27;;
20458;SDS011;10388;52.314;7.938;2023-05-16T12:59:25;3.37;;;1.23;;
20458;SDS011;10388;52.314;7.938;2023-05-16T13:01:58;3.57;;;1.10;;
20458;SDS011;10388;52.314;7.938;2023-05-16T13:04:28;5.17;;;1.20;;
20458;SDS011;10388;52.314;7.938;2023-05-16T13:06:59;6.93;;;1.50;;
20458;SDS011;10388;52.314;7.938;2023-05-16T13:09:30;4.60;;;1.10;;
20458;SDS011;10388;52.314;7.938;2023-05-16T13:12:00;3.47;;;0.90;;
20458;SDS011;10388;52.314;7.938;2023-05-16T13:14:31;3.63;;;1.20;;
20458;SDS011;10388;52.314;7.938;2023-05-16T13:17:01;4.03;;;1.13;;
20458;SDS011;10388;52.314;7.938;2023-05-16T13:19:33;3.50;;;1.13;;
20458;SDS011;10388;52.314;7.938;2023-05-16T13:22:03;2.90;;;0.90;;
20458;SDS011;10388;52.314;7.938;2023-05-16T13:24:34;4.63;;;1.50;;
20458;SDS011;10388;52.314;7.938;2023-05-16T13:27:05;3.43;;;1.20;;
20458;SDS011;10388;52.314;7.938;2023-05-16T13:29:35;3.80;;;1.47;;
20458;SDS011;10388;52.314;7.938;2023-05-16T13:32:06;2.53;;;1.13;;
20458;SDS011;10388;52.314;7.938;2023-05-16T13:34:36;2.83;;;0.93;;
20458;SDS011;10388;52.314;7.938;2023-05-16T13:37:07;3.57;;;1.10;;
20458;SDS011;10388;52.314;7.938;2023-05-16T13:39:37;5.33;;;1.20;;
20458;SDS011;10388;52.314;7.938;2023-05-16T13:42:08;4.87;;;1.40;;
20458;SDS011;10388;52.314;7.938;2023-05-16T13:44:39;3.90;;;0.97;;
20458;SDS011;10388;52.314;7.938;2023-05-16T13:47:09;3.23;;;1.07;;
20458;SDS011;10388;52.314;7.938;2023-05-16T13:49:40;2.43;;;0.90;;
20458;SDS011;10388;52.314;7.938;2023-05-16T13:52:11;4.00;;;0.93;;
20458;SDS011;10388;52.314;7.938;2023-05-16T13:54:41;2.80;;;1.17;;
20458;SDS011;10388;52.314;7.938;2023-05-16T13:57:12;4.93;;;1.10;;
20458;SDS011;10388;52.314;7.938;2023-05-16T13:59:42;1.50;;;0.83;;
20458;SDS011;10388;52.314;7.938;2023-05-16T14:02:13;5.20;;;1.30;;
20458;SDS011;10388;52.314;7.938;2023-05-16T14:04:44;2.90;;;0.83;;
20458;SDS011;10388;52.314;7.938;2023-05-16T14:07:14;5.40;;;1.30;;
20458;SDS011;10388;52.314;7.938;2023-05-16T14:09:45;3.17;;;1.00;;
20458;SDS011;10388;52.314;7.938;2023-05-16T14:12:15;1.83;;;0.83;;
20458;SDS011;10388;52.314;7.938;2023-05-16T14:14:46;3.50;;;1.20;;
20458;SDS011;10388;52.314;7.938;2023-05-16T14:17:16;6.97;;;1.60;;
20458;SDS011;10388;52.314;7.938;2023-05-16T14:19:47;3.37;;;1.13;;
20458;SDS011;10388;52.314;7.938;2023-05-16T14:22:17;3.63;;;1.00;;
20458;SDS011;10388;52.314;7.938;2023-05-16T14:24:48;2.53;;;0.90;;
20458;SDS011;10388;52.314;7.938;2023-05-16T14:27:18;4.40;;;1.30;;
20458;SDS011;10388;52.314;7.938;2023-05-16T14:29:49;2.73;;;1.10;;
20458;SDS011;10388;52.314;7.938;2023-05-16T14:32:21;2.00;;;0.90;;
20458;SDS011;10388;52.314;7.938;2023-05-16T14:34:52;4.90;;;1.10;;
20458;SDS011;10388;52.314;7.938;2023-05-16T14:37:22;4.10;;;1.50;;
20458;SDS011;10388;52.314;7.938;2023-05-16T14:39:53;3.27;;;1.40;;
20458;SDS011;10388;52.314;7.938;2023-05-16T14:42:24;4.10;;;1.43;;
20458;SDS011;10388;52.314;7.938;2023-05-16T14:44:54;7.63;;;2.00;;
20458;SDS011;10388;52.314;7.938;2023-05-16T14:47:25;3.43;;;1.10;;
20458;SDS011;10388;52.314;7.938;2023-05-16T14:49:57;3.57;;;1.20;;
20458;SDS011;10388;52.314;7.938;2023-05-16T14:52:28;4.37;;;1.30;;
20458;SDS011;10388;52.314;7.938;2023-05-16T14:54:58;3.70;;;1.43;;
20458;SDS011;10388;52.314;7.938;2023-05-16T14:57:29;2.80;;;1.20;;
20458;SDS011;10388;52.314;7.938;2023-05-16T15:00:00;2.97;;;1.30;;
20458;SDS011;10388;52.314;7.938;2023-05-16T15:02:31;4.87;;;1.90;;
20458;SDS011;10388;52.314;7.938;2023-05-16T15:05:02;4.53;;;1.20;;
20458;SDS011;10388;52.314;7.938;2023-05-16T15:07:33;3.70;;;1.20;;
20458;SDS011;10388;52.314;7.938;2023-05-16T15:10:04;2.13;;;1.07;;
20458;SDS011;10388;52.314;7.938;2023-05-16T15:12:35;4.13;;;1.30;;
20458;SDS011;10388;52.314;7.938;2023-05-16T15:15:06;4.53;;;1.57;;
20458;SDS011;10388;52.314;7.938;2023-05-16T15:17:40;2.90;;;1.47;;
20458;SDS011;10388;52.314;7.938;2023-05-16T15:20:11;3.63;;;1.60;;
20458;SDS011;10388;52.314;7.938;2023-05-16T15:22:42;3.03;;;1.57;;
20458;SDS011;10388;52.314;7.938;2023-05-16T15:25:12;4.20;;;1.87;;
20458;SDS011;10388;52.314;7.938;2023-05-16T15:27:43;6.63;;;1.83;;
20458;SDS011;10388;52.314;7.938;2023-05-16T15:30:14;2.63;;;1.37;;
20458;SDS011;10388;52.314;7.938;2023-05-16T15:32:45;2.83;;;1.50;;
20458;SDS011;10388;52.314;7.938;2023-05-16T15:35:15;4.10;;;1.50;;
20458;SDS011;10388;52.314;7.938;2023-05-16T15:37:46;6.77;;;2.23;;
20458;SDS011;10388;52.314;7.938;2023-05-16T15:40:16;3.10;;;1.80;;
20458;SDS011;10388;52.314;7.938;2023-05-16T15:42:47;6.17;;;2.30;;
20458;SDS011;10388;52.314;7.938;2023-05-16T15:45:17;3.90;;;2.00;;
20458;SDS011;10388;52.314;7.938;2023-05-16T15:47:48;5.10;;;2.00;;
20458;SDS011;10388;52.314;7.938;2023-05-16T15:50:18;3.53;;;1.50;;
20458;SDS011;10388;52.314;7.938;2023-05-16T15:52:49;9.70;;;2.30;;
20458;SDS011;10388;52.314;7.938;2023-05-16T15:55:20;5.43;;;2.07;;
20458;SDS011;10388;52.314;7.938;2023-05-16T15:57:51;3.53;;;2.00;;
20458;SDS011;10388;52.314;7.938;2023-05-16T16:00:25;3.73;;;2.17;;
20458;SDS011;10388;52.314;7.938;2023-05-16T16:02:56;5.50;;;2.30;;
20458;SDS011;10388;52.314;7.938;2023-05-16T16:05:26;3.83;;;2.13;;
20458;SDS011;10388;52.314;7.938;2023-05-16T16:07:57;6.23;;;2.00;;
20458;SDS011;10388;52.314;7.938;2023-05-16T16:10:28;3.53;;;1.87;;
20458;SDS011;10388;52.314;7.938;2023-05-16T16:13:00;5.03;;;2.17;;
20458;SDS011;10388;52.314;7.938;2023-05-16T16:15:31;3.50;;;1.90;;
20458;SDS011;10388;52.314;7.938;2023-05-16T16:18:02;6.43;;;2.07;;
20458;SDS011;10388;52.314;7.938;2023-05-16T16:20:33;7.43;;;1.93;;
20458;SDS011;10388;52.314;7.938;2023-05-16T16:23:03;4.67;;;2.30;;
20458;SDS011;10388;52.314;7.938;2023-05-16T16:25:34;3.33;;;1.87;;
20458;SDS011;10388;52.314;7.938;2023-05-16T16:28:05;3.93;;;1.67;;
20458;SDS011;10388;52.314;7.938;2023-05-16T16:30:36;4.10;;;2.07;;
20458;SDS011;10388;52.314;7.938;2023-05-16T16:33:06;3.30;;;2.10;;
20458;SDS011;10388;52.314;7.938;2023-05-16T16:35:37;5.47;;;2.40;;
20458;SDS011;10388;52.314;7.938;2023-05-16T16:38:07;4.87;;;2.03;;
20458;SDS011;10388;52.314;7.938;2023-05-16T16:40:38;4.33;;;2.17;;
20458;SDS011;10388;52.314;7.938;2023-05-16T16:43:09;4.57;;;2.33;;
20458;SDS011;10388;52.314;7.938;2023-05-16T16:45:39;5.33;;;2.50;;
20458;SDS011;10388;52.314;7.938;2023-05-16T16:48:10;4.17;;;2.17;;
20458;SDS011;10388;52.314;7.938;2023-05-16T16:50:41;4.20;;;2.33;;
20458;SDS011;10388;52.314;7.938;2023-05-16T16:53:12;3.40;;;2.13;;
20458;SDS011;10388;52.314;7.938;2023-05-16T16:55:43;3.07;;;2.07;;